createdAt,value
2016-10-01T00:00:22.826Z,98.03
2016-10-01T00:01:22.824Z,97.79
2016-10-01T00:02:22.804Z,97.89
2016-10-01T00:03:22.794Z,97.6
2016-10-01T00:04:22.796Z,97.74
2016-10-01T00:05:22.782Z,97.93
2016-10-01T00:06:22.773Z,97.74
2016-10-01T00:07:22.768Z,98.03
2016-10-01T00:08:22.757Z,97.55
2016-10-01T00:09:22.754Z,97.65
2016-10-01T00:10:22.753Z,97.84
2016-10-01T00:11:22.737Z,98.22
2016-10-01T00:12:22.732Z,97.84
2016-10-01T00:13:22.726Z,97.84
2016-10-01T00:14:23.021Z,97.93
2016-10-01T00:15:22.707Z,97.93
2016-10-01T00:16:22.698Z,98.32
2016-10-01T00:17:22.696Z,98.22
2016-10-01T00:18:23.177Z,98.41
2016-10-01T00:19:22.674Z,98.41
2016-10-01T00:20:22.671Z,98.41
2016-10-01T00:21:23.293Z,98.41
2016-10-01T00:22:22.656Z,97.93
2016-10-01T00:23:22.651Z,98.13
2016-10-01T00:24:22.642Z,97.93
2016-10-01T00:25:22.631Z,98.03
2016-10-01T00:26:24.225Z,98.22
2016-10-01T00:27:22.618Z,98.41
2016-10-01T00:28:23.680Z,98.13
2016-10-01T00:29:23.612Z,98.13
2016-10-01T00:30:22.618Z,98.13
2016-10-01T00:31:22.587Z,97.84
2016-10-01T00:32:22.579Z,97.93
2016-10-01T00:33:22.572Z,98.22
2016-10-01T00:34:22.560Z,97.36
2016-10-01T00:35:22.553Z,97.93
2016-10-01T00:36:22.545Z,97.84
2016-10-01T00:37:22.540Z,97.93
2016-10-01T00:38:22.536Z,98.03
2016-10-01T00:39:22.523Z,97.55
2016-10-01T00:40:22.518Z,98.03
2016-10-01T00:41:22.511Z,98.03
2016-10-01T00:42:22.502Z,98.13
2016-10-01T00:43:22.499Z,97.93
2016-10-01T00:45:22.788Z,97.93
2016-10-01T00:47:22.716Z,97.93
2016-10-01T00:48:22.458Z,97.65
2016-10-01T00:49:22.747Z,98.03
2016-10-01T00:50:22.450Z,97.65
2016-10-01T00:51:22.434Z,98.03
2016-10-01T00:52:22.426Z,97.93
2016-10-01T00:53:22.517Z,97.27
2016-10-01T00:54:22.413Z,97.93
2016-10-01T00:55:22.426Z,97.84
2016-10-01T00:56:22.493Z,97.93
2016-10-01T00:57:22.388Z,98.03
2016-10-01T00:58:22.479Z,97.65
2016-10-01T00:59:22.574Z,98.03
2016-10-01T01:00:22.365Z,97.84
2016-10-01T01:01:22.358Z,97.84
2016-10-01T01:02:22.355Z,97.84
2016-10-01T01:03:22.344Z,97.84
2016-10-01T01:04:22.336Z,97.65
2016-10-01T01:05:22.326Z,97.55
2016-10-01T01:06:22.320Z,98.03
2016-10-01T01:07:22.309Z,97.84
2016-10-01T01:08:22.304Z,97.93
2016-10-01T01:09:22.301Z,97.36
2016-10-01T01:10:22.291Z,97.65
2016-10-01T01:11:22.279Z,97.65
2016-10-01T01:12:22.273Z,97.84
2016-10-01T01:13:22.267Z,97.84
2016-10-01T01:14:22.257Z,97.84
2016-10-01T01:15:22.250Z,97.93
2016-10-01T01:16:22.245Z,98.22
2016-10-01T01:17:22.235Z,97.93
2016-10-01T01:18:22.236Z,98.22
2016-10-01T01:19:22.218Z,98.41
2016-10-01T01:20:22.212Z,97.84
2016-10-01T01:21:22.203Z,98.22
2016-10-01T01:22:22.198Z,97.55
2016-10-01T01:23:22.189Z,98.03
2016-10-01T01:24:22.182Z,97.93
2016-10-01T01:25:22.177Z,98.22
2016-10-01T01:26:22.168Z,98.22
2016-10-01T01:27:22.160Z,98.22
2016-10-01T01:28:22.152Z,98.22
2016-10-01T01:29:22.144Z,98.13
2016-10-01T01:30:22.134Z,98.13
2016-10-01T01:31:22.132Z,98.22
2016-10-01T01:32:22.119Z,98.13
2016-10-01T01:33:22.109Z,98.22
2016-10-01T01:34:22.101Z,98.22
2016-10-01T01:35:22.100Z,98.03
2016-10-01T01:36:23.609Z,97.93
2016-10-01T01:37:22.082Z,97.93
2016-10-01T01:38:22.076Z,98.03
2016-10-01T01:39:22.064Z,97.84
2016-10-01T01:40:22.686Z,97.84
2016-10-01T01:41:22.052Z,97.84
2016-10-01T01:42:22.040Z,98.13
2016-10-01T01:43:22.033Z,97.74
2016-10-01T01:44:22.029Z,97.84
2016-10-01T01:45:22.704Z,98.13
2016-10-01T01:46:22.009Z,98.32
2016-10-01T01:47:22.000Z,97.84
2016-10-01T01:48:21.994Z,98.03
2016-10-01T01:49:22.200Z,98.13
2016-10-01T01:50:21.983Z,97.79
2016-10-01T01:51:21.973Z,98.22
2016-10-01T01:52:22.068Z,97.69
2016-10-01T01:53:21.959Z,98.22
2016-10-01T01:54:21.949Z,97.69
2016-10-01T01:55:21.936Z,98.13
2016-10-01T01:56:21.935Z,98.5
2016-10-01T01:57:21.920Z,97.98
2016-10-01T01:58:22.220Z,98.13
2016-10-01T01:59:21.912Z,97.98
2016-10-01T02:00:21.901Z,97.69
2016-10-01T02:01:21.893Z,97.69
2016-10-01T02:02:21.880Z,97.69
2016-10-01T02:03:21.877Z,97.88
2016-10-01T02:04:21.870Z,97.88
2016-10-01T02:05:21.859Z,97.6
2016-10-01T02:06:21.856Z,97.79
2016-10-01T02:07:21.841Z,98.17
2016-10-01T02:08:21.841Z,98.17
2016-10-01T02:09:21.829Z,98.03
2016-10-01T02:10:21.821Z,97.6
2016-10-01T02:11:22.614Z,98.17
2016-10-01T02:12:21.905Z,97.69
2016-10-01T02:13:22.497Z,97.88
2016-10-01T02:14:21.788Z,97.79
2016-10-01T02:15:22.282Z,98.03
2016-10-01T02:16:21.775Z,98.17
2016-10-01T02:17:21.765Z,97.79
2016-10-01T02:18:21.758Z,97.93
2016-10-01T02:19:21.746Z,97.84
2016-10-01T02:20:21.740Z,98.22
2016-10-01T02:21:21.731Z,98.22
2016-10-01T02:22:21.729Z,98.32
2016-10-01T02:23:21.720Z,98.6
2016-10-01T02:24:21.708Z,98.88
2016-10-01T02:25:21.702Z,98.69
2016-10-01T02:26:21.694Z,98.6
2016-10-01T02:27:21.684Z,98.41
2016-10-01T02:28:21.677Z,98.41
2016-10-01T02:29:21.669Z,98.32
2016-10-01T02:30:21.661Z,98.22
2016-10-01T02:31:21.657Z,98.22
2016-10-01T02:32:21.645Z,98.41
2016-10-01T02:33:21.639Z,98.69
2016-10-01T02:34:21.631Z,98.69
2016-10-01T02:35:21.627Z,98.41
2016-10-01T02:36:21.619Z,98.79
2016-10-01T02:37:21.610Z,98.5
2016-10-01T02:38:21.601Z,98.79
2016-10-01T02:39:21.590Z,98.69
2016-10-01T02:40:21.583Z,98.5
2016-10-01T02:41:21.580Z,98.5
2016-10-01T02:42:21.567Z,98.5
2016-10-01T02:43:21.562Z,98.46
2016-10-01T02:44:21.556Z,98.46
2016-10-01T02:45:21.544Z,98.46
2016-10-01T02:46:21.540Z,98.32
2016-10-01T02:47:21.530Z,98.13
2016-10-01T02:48:21.522Z,98.27
2016-10-01T02:49:21.515Z,98.46
2016-10-01T02:50:21.509Z,98.36
2016-10-01T02:51:21.499Z,98.27
2016-10-01T02:52:21.499Z,98.46
2016-10-01T02:53:21.485Z,98.46
2016-10-01T02:54:22.264Z,98.36
2016-10-01T02:55:22.479Z,98.36
2016-10-01T02:56:22.722Z,98.46
2016-10-01T02:57:21.451Z,98.46
2016-10-01T02:58:21.451Z,98.36
2016-10-01T02:59:21.709Z,98.65
2016-10-01T03:00:21.518Z,98.65
2016-10-01T03:01:21.428Z,98.74
2016-10-01T03:02:21.427Z,98.55
2016-10-01T03:03:22.931Z,98.74
2016-10-01T03:04:21.405Z,98.55
2016-10-01T03:05:21.644Z,98.65
2016-10-01T03:06:21.601Z,98.84
2016-10-01T03:07:21.379Z,98.51
2016-10-01T03:08:21.377Z,98.32
2016-10-01T03:09:21.369Z,98.27
2016-10-01T03:10:21.364Z,98.32
2016-10-01T03:11:21.366Z,98.03
2016-10-01T03:12:21.351Z,98.22
2016-10-01T03:13:21.335Z,98.32
2016-10-01T03:14:21.343Z,97.65
2016-10-01T03:15:21.327Z,97.94
2016-10-01T03:16:21.317Z,97.94
2016-10-01T03:17:21.305Z,98.22
2016-10-01T03:18:21.302Z,98.22
2016-10-01T03:19:21.294Z,97.84
2016-10-01T03:20:22.290Z,97.65
2016-10-01T03:21:21.428Z,98.03
2016-10-01T03:22:22.172Z,98.03
2016-10-01T03:23:21.266Z,98.32
2016-10-01T03:24:21.862Z,98.22
2016-10-01T03:25:21.248Z,98.51
2016-10-01T03:26:21.241Z,98.32
2016-10-01T03:27:21.237Z,97.94
2016-10-01T03:28:21.234Z,97.94
2016-10-01T03:29:21.676Z,97.65
2016-10-01T03:30:21.219Z,97.56
2016-10-01T03:31:21.461Z,98.13
2016-10-01T03:32:21.201Z,97.94
2016-10-01T03:33:21.196Z,97.84
2016-10-01T03:34:21.638Z,97.75
2016-10-01T03:35:21.503Z,97.36
2016-10-01T03:36:21.175Z,97.65
2016-10-01T03:37:21.167Z,97.75
2016-10-01T03:38:21.164Z,97.56
2016-10-01T03:39:21.153Z,97.56
2016-10-01T03:40:21.150Z,97.08
2016-10-01T03:41:21.141Z,97.56
2016-10-01T03:42:21.135Z,97.46
2016-10-01T03:43:21.127Z,97.46
2016-10-01T03:44:21.118Z,97.65
2016-10-01T03:45:21.112Z,97.32
2016-10-01T03:46:21.101Z,97.27
2016-10-01T03:47:21.100Z,97.32
2016-10-01T03:48:21.089Z,97.32
2016-10-01T03:49:21.089Z,97.22
2016-10-01T03:50:21.077Z,97.22
2016-10-01T03:51:21.074Z,97.41
2016-10-01T03:52:21.063Z,97.22
2016-10-01T03:53:21.054Z,97.13
2016-10-01T03:54:21.052Z,97.03
2016-10-01T03:55:21.045Z,97.22
2016-10-01T03:56:21.037Z,97.22
2016-10-01T03:57:21.030Z,96.84
2016-10-01T03:58:21.023Z,96.84
2016-10-01T03:59:21.014Z,96.75
2016-10-01T04:00:21.008Z,96.94
2016-10-01T04:01:21.001Z,96.56
2016-10-01T04:02:20.998Z,96.94
2016-10-01T04:03:20.986Z,96.65
2016-10-01T04:04:20.980Z,96.84
2016-10-01T04:05:20.977Z,96.36
2016-10-01T04:06:20.970Z,96.75
2016-10-01T04:07:20.959Z,96.75
2016-10-01T04:08:20.956Z,96.08
2016-10-01T04:09:20.951Z,96.36
2016-10-01T04:10:20.956Z,96.65
2016-10-01T04:11:20.934Z,96.36
2016-10-01T04:12:22.249Z,95.7
2016-10-01T04:13:22.338Z,96.17
2016-10-01T04:14:20.910Z,96.08
2016-10-01T04:15:20.910Z,95.79
2016-10-01T04:16:20.997Z,95.7
2016-10-01T04:17:21.449Z,95.79
2016-10-01T04:18:21.220Z,96.08
2016-10-01T04:19:20.879Z,95.98
2016-10-01T04:20:20.876Z,96.08
2016-10-01T04:21:22.386Z,95.98
2016-10-01T04:22:20.899Z,95.89
2016-10-01T04:23:21.251Z,96.17
2016-10-01T04:24:21.213Z,95.79
2016-10-01T04:25:20.839Z,96.17
2016-10-01T04:26:20.836Z,95.79
2016-10-01T04:27:20.828Z,95.98
2016-10-01T04:28:20.818Z,95.98
2016-10-01T04:29:20.812Z,96.08
2016-10-01T04:30:20.809Z,95.32
2016-10-01T04:31:20.796Z,95.89
2016-10-01T04:32:20.792Z,95.41
2016-10-01T04:33:20.784Z,95.89
2016-10-01T04:34:20.780Z,95.41
2016-10-01T04:35:20.771Z,95.61
2016-10-01T04:36:20.765Z,95.51
2016-10-01T04:37:20.761Z,95.61
2016-10-01T04:38:35.666Z,95.65
2016-10-01T04:39:21.697Z,95.51
2016-10-01T04:40:20.740Z,95.65
2016-10-01T04:41:20.732Z,95.65
2016-10-01T04:42:20.725Z,95.94
2016-10-01T04:43:20.715Z,95.94
2016-10-01T04:44:20.910Z,95.46
2016-10-01T04:45:20.706Z,95.65
2016-10-01T04:46:20.701Z,95.27
2016-10-01T04:48:21.235Z,95.84
2016-10-01T04:49:20.677Z,96.12
2016-10-01T04:50:35.584Z,96.03
2016-10-01T04:51:21.061Z,95.94
2016-10-01T04:52:20.659Z,95.84
2016-10-01T04:53:20.648Z,95.75
2016-10-01T04:54:20.646Z,95.75
2016-10-01T04:55:20.637Z,95.84
2016-10-01T04:56:20.877Z,95.94
2016-10-01T04:57:20.621Z,95.75
2016-10-01T04:58:20.614Z,95.84
2016-10-01T04:59:20.607Z,96.12
2016-10-01T05:00:20.604Z,95.94
2016-10-01T05:01:20.846Z,95.65
2016-10-01T05:02:20.587Z,95.75
2016-10-01T05:03:20.581Z,96.41
2016-10-01T05:04:20.571Z,96.6
2016-10-01T05:05:20.571Z,95.94
2016-10-01T05:06:20.906Z,96.32
2016-10-01T05:07:20.551Z,96.51
2016-10-01T05:08:20.545Z,96.32
2016-10-01T05:09:20.536Z,96.56
2016-10-01T05:10:20.533Z,96.41
2016-10-01T05:11:20.530Z,95.65
2016-10-01T05:12:20.518Z,95.75
2016-10-01T05:13:20.509Z,95.89
2016-10-01T05:14:20.506Z,96.03
2016-10-01T05:15:20.501Z,96.6
2016-10-01T05:16:20.488Z,95.98
2016-10-01T05:17:20.480Z,95.79
2016-10-01T05:18:20.476Z,96.08
2016-10-01T05:19:20.472Z,95.89
2016-10-01T05:20:20.461Z,95.89
2016-10-01T05:21:20.455Z,95.98
2016-10-01T05:22:20.746Z,95.79
2016-10-01T05:23:20.438Z,95.79
2016-10-01T05:24:20.432Z,95.89
2016-10-01T05:25:20.430Z,96.17
2016-10-01T05:26:20.428Z,95.79
2016-10-01T05:27:20.421Z,95.79
2016-10-01T05:28:20.408Z,96.08
2016-10-01T05:29:20.403Z,95.98
2016-10-01T05:31:20.450Z,95.98
2016-10-01T05:32:20.633Z,95.89
2016-10-01T05:33:20.369Z,95.98
2016-10-01T05:34:20.367Z,95.98
2016-10-01T05:35:20.361Z,95.89
2016-10-01T05:36:20.351Z,95.98
2016-10-01T05:37:20.347Z,96.08
2016-10-01T05:38:20.339Z,95.41
2016-10-01T05:39:21.509Z,95.7
2016-10-01T05:40:21.770Z,95.51
2016-10-01T05:41:20.346Z,95.61
2016-10-01T05:42:20.312Z,95.89
2016-10-01T05:43:20.614Z,95.51
2016-10-01T05:44:20.299Z,95.61
2016-10-01T05:45:20.296Z,95.51
2016-10-01T05:46:20.286Z,95.51
2016-10-01T05:47:20.281Z,95.51
2016-10-01T05:48:20.276Z,95.51
2016-10-01T05:49:20.269Z,95.7
2016-10-01T05:50:20.273Z,95.79
2016-10-01T05:51:20.251Z,95.7
2016-10-01T05:52:20.245Z,95.61
2016-10-01T05:53:20.237Z,95.94
2016-10-01T05:54:20.236Z,95.37
2016-10-01T05:55:20.227Z,95.46
2016-10-01T05:56:21.175Z,95.37
2016-10-01T05:58:20.459Z,95.08
2016-10-01T05:59:20.250Z,95.17
2016-10-01T06:00:20.195Z,94.98
2016-10-01T06:01:20.436Z,95.27
2016-10-01T06:02:20.183Z,95.17
2016-10-01T06:03:20.176Z,95.27
2016-10-01T06:04:20.165Z,95.27
2016-10-01T06:05:20.164Z,95.46
2016-10-01T06:06:20.310Z,94.6
2016-10-01T06:07:20.149Z,94.89
2016-10-01T06:08:20.141Z,94.41
2016-10-01T06:09:20.135Z,94.98
2016-10-01T06:10:20.181Z,94.6
2016-10-01T06:11:20.482Z,94.89
2016-10-01T06:12:20.271Z,94.93
2016-10-01T06:13:20.113Z,94.74
2016-10-01T06:14:20.131Z,94.93
2016-10-01T06:15:20.101Z,94.46
2016-10-01T06:16:20.097Z,93.98
2016-10-01T06:17:20.110Z,93.98
2016-10-01T06:18:20.083Z,94.17
2016-10-01T06:19:20.077Z,94.27
2016-10-01T06:20:20.070Z,93.88
2016-10-01T06:21:20.068Z,93.7
2016-10-01T06:22:20.056Z,93.98
2016-10-01T06:23:20.058Z,93.6
2016-10-01T06:24:20.046Z,93.22
2016-10-01T06:25:20.037Z,93.41
2016-10-01T06:26:20.031Z,93.31
2016-10-01T06:27:20.037Z,92.93
2016-10-01T06:28:20.026Z,92.74
2016-10-01T06:29:20.017Z,93.02
2016-10-01T06:30:20.007Z,92.93
2016-10-01T06:31:20.003Z,93.12
2016-10-01T06:32:19.998Z,93.12
2016-10-01T06:33:19.989Z,92.93
2016-10-01T06:34:19.996Z,92.65
2016-10-01T06:35:19.979Z,92.93
2016-10-01T06:36:19.973Z,92.26
2016-10-01T06:37:19.970Z,92.5
2016-10-01T06:38:19.967Z,92.36
2016-10-01T06:39:19.956Z,92.26
2016-10-01T06:40:19.947Z,92.6
2016-10-01T06:41:19.944Z,92.6
2016-10-01T06:42:19.943Z,92.5
2016-10-01T06:43:19.939Z,92.6
2016-10-01T06:44:19.924Z,91.93
2016-10-01T06:45:19.923Z,92.41
2016-10-01T06:46:19.918Z,92.5
2016-10-01T06:47:19.909Z,91.74
2016-10-01T06:48:19.906Z,91.93
2016-10-01T06:49:20.761Z,91.88
2016-10-01T06:50:20.982Z,91.59
2016-10-01T06:51:20.098Z,91.26
2016-10-01T06:52:19.892Z,91.4
2016-10-01T06:53:19.883Z,91.4
2016-10-01T06:54:19.992Z,91.3
2016-10-01T06:55:19.867Z,91.5
2016-10-01T06:56:20.166Z,91.02
2016-10-01T06:58:20.253Z,90.35
2016-10-01T06:59:20.541Z,90.59
2016-10-01T07:00:19.842Z,90.97
2016-10-01T07:01:19.834Z,90.39
2016-10-01T07:02:19.839Z,90.59
2016-10-01T07:03:19.826Z,90.11
2016-10-01T07:04:19.825Z,89.53
2016-10-01T07:05:19.822Z,89.15
2016-10-01T07:06:19.811Z,89.25
2016-10-01T07:07:19.809Z,89.1
2016-10-01T07:08:19.801Z,89.29
2016-10-01T07:09:19.801Z,89.48
2016-10-01T07:10:19.796Z,89.1
2016-10-01T07:11:19.790Z,88.81
2016-10-01T07:12:19.788Z,88.53
2016-10-01T07:13:19.781Z,88.34
2016-10-01T07:14:19.778Z,88.09
2016-10-01T07:16:19.773Z,87.43
2016-10-01T07:17:19.765Z,87.81
2016-10-01T07:18:19.761Z,87.71
2016-10-01T07:19:20.107Z,87.81
2016-10-01T07:20:19.750Z,87.43
2016-10-01T07:21:19.747Z,87.23
2016-10-01T07:22:19.746Z,87.04
2016-10-01T07:23:20.592Z,86.99
2016-10-01T07:24:19.892Z,86.61
2016-10-01T07:25:35.048Z,85.94
2016-10-01T07:26:19.727Z,85.55
2016-10-01T07:27:19.726Z,85.36
2016-10-01T07:28:19.817Z,85.65
2016-10-01T07:29:19.725Z,85.75
2016-10-01T07:30:19.716Z,85.46
2016-10-01T07:31:19.710Z,85.84
2016-10-01T07:32:19.702Z,85.08
2016-10-01T07:33:19.701Z,85.08
2016-10-01T07:34:19.699Z,85.21
2016-10-01T07:35:19.692Z,85.12
2016-10-01T07:36:19.693Z,85.02
2016-10-01T07:37:19.689Z,84.45
2016-10-01T07:38:19.683Z,84.22
2016-10-01T07:39:19.677Z,84.12
2016-10-01T07:40:19.678Z,84.22
2016-10-01T07:41:19.673Z,84.02
2016-10-01T07:42:19.671Z,84.12
2016-10-01T07:43:19.666Z,84.12
2016-10-01T07:44:19.661Z,84.12
2016-10-01T07:45:19.661Z,84.12
2016-10-01T07:46:19.672Z,84.12
2016-10-01T07:47:19.647Z,84.31
2016-10-01T07:48:19.648Z,84.02
2016-10-01T07:49:19.644Z,84.12
2016-10-01T07:50:19.938Z,83.93
2016-10-01T07:51:19.637Z,84.22
2016-10-01T07:52:19.636Z,84.41
2016-10-01T07:53:19.626Z,84.22
2016-10-01T07:54:19.627Z,84.31
2016-10-01T07:55:19.625Z,84.31
2016-10-01T07:56:19.619Z,84.12
2016-10-01T07:57:19.617Z,84.59
2016-10-01T07:58:19.612Z,84.41
2016-10-01T07:59:19.605Z,84.02
2016-10-01T08:00:19.598Z,83.73
2016-10-01T08:01:19.597Z,84.12
2016-10-01T08:02:19.598Z,84.31
2016-10-01T08:03:19.591Z,83.73
2016-10-01T08:04:19.589Z,84.02
2016-10-01T08:05:19.591Z,84.02
2016-10-01T08:06:19.699Z,84.02
2016-10-01T08:07:19.578Z,84.31
2016-10-01T08:08:19.575Z,84.22
2016-10-01T08:09:19.570Z,84.31
2016-10-01T08:10:19.907Z,84.12
2016-10-01T08:11:19.561Z,83.83
2016-10-01T08:12:19.557Z,83.93
2016-10-01T08:13:19.557Z,83.83
2016-10-01T08:14:19.548Z,83.73
2016-10-01T08:15:19.543Z,83.64
2016-10-01T08:17:19.539Z,83.73
2016-10-01T08:18:20.575Z,83.64
2016-10-01T08:19:19.801Z,83.93
2016-10-01T08:20:19.530Z,83.45
2016-10-01T08:21:19.523Z,83.26
2016-10-01T08:22:19.516Z,83.16
2016-10-01T08:23:19.511Z,83.16
2016-10-01T08:24:19.511Z,83.16
2016-10-01T08:25:19.505Z,82.87
2016-10-01T08:26:19.504Z,82.87
2016-10-01T08:27:19.501Z,83.2
2016-10-01T08:28:19.497Z,82.92
2016-10-01T08:29:19.491Z,83.2
2016-10-01T08:30:19.485Z,83.39
2016-10-01T08:31:19.481Z,83.3
2016-10-01T08:32:19.626Z,83.3
2016-10-01T08:33:19.479Z,82.73
2016-10-01T08:34:34.389Z,83.11
2016-10-01T08:35:19.466Z,83.26
2016-10-01T08:36:19.466Z,83.45
2016-10-01T08:37:19.458Z,83.83
2016-10-01T08:38:19.469Z,83.83
2016-10-01T08:39:19.458Z,84.12
2016-10-01T08:40:19.454Z,84.02
2016-10-01T08:41:20.303Z,84.31
2016-10-01T08:42:19.792Z,84.31
2016-10-01T08:43:19.445Z,84.79
2016-10-01T08:44:19.431Z,84.41
2016-10-01T08:45:19.434Z,84.69
2016-10-01T08:46:19.783Z,85.46
2016-10-01T08:47:19.422Z,85.46
2016-10-01T08:48:19.415Z,85.36
2016-10-01T08:49:19.414Z,85.36
2016-10-01T08:50:19.412Z,85.36
2016-10-01T08:51:19.423Z,85.55
2016-10-01T08:52:19.407Z,86.13
2016-10-01T08:53:19.402Z,86.22
2016-10-01T08:54:19.398Z,85.27
2016-10-01T08:55:19.391Z,86.51
2016-10-01T08:56:19.387Z,86.41
2016-10-01T08:57:19.393Z,85.75
2016-10-01T08:58:19.386Z,85.36
2016-10-01T08:59:19.375Z,85.46
2016-10-01T09:00:19.371Z,85.36
2016-10-01T09:01:19.367Z,85.75
2016-10-01T09:02:19.382Z,85.61
2016-10-01T09:03:19.364Z,85.71
2016-10-01T09:04:19.354Z,85.99
2016-10-01T09:05:19.357Z,85.99
2016-10-01T09:06:19.344Z,85.8
2016-10-01T09:07:19.347Z,85.89
2016-10-01T09:08:19.338Z,86.08
2016-10-01T09:09:19.337Z,86.66
2016-10-01T09:10:19.329Z,86.28
2016-10-01T09:11:19.326Z,86.47
2016-10-01T09:12:19.322Z,87.04
2016-10-01T09:13:19.319Z,86.76
2016-10-01T09:14:19.317Z,87.04
2016-10-01T09:15:19.315Z,87.43
2016-10-01T09:16:19.306Z,87.33
2016-10-01T09:17:19.304Z,87.23
2016-10-01T09:18:19.295Z,87.52
2016-10-01T09:19:19.295Z,87.71
2016-10-01T09:20:19.302Z,87.52
2016-10-01T09:21:19.288Z,87.9
2016-10-01T09:22:19.283Z,87.9
2016-10-01T09:23:19.277Z,88.09
2016-10-01T09:24:20.924Z,88.95
2016-10-01T09:25:19.584Z,88.57
2016-10-01T09:26:20.179Z,89.34
2016-10-01T09:27:20.318Z,89.2
2016-10-01T09:28:19.384Z,89.67
2016-10-01T09:29:19.247Z,90.3
2016-10-01T09:30:19.244Z,89.96
2016-10-01T09:31:19.238Z,90.63
2016-10-01T09:32:19.236Z,90.63
2016-10-01T09:33:20.649Z,90.92
2016-10-01T09:34:19.285Z,90.53
2016-10-01T09:35:19.865Z,91.11
2016-10-01T09:36:20.161Z,91.11
2016-10-01T09:37:19.280Z,91.39
2016-10-01T09:38:19.212Z,91.39
2016-10-01T09:39:19.205Z,91.59
2016-10-01T09:40:19.206Z,92.45
2016-10-01T09:41:19.200Z,92.54
2016-10-01T09:42:19.192Z,92.93
2016-10-01T09:43:19.186Z,93.4
2016-10-01T09:44:19.187Z,94.46
2016-10-01T09:45:19.179Z,94.26
2016-10-01T09:46:19.177Z,94.84
2016-10-01T09:47:19.169Z,94.74
2016-10-01T09:48:19.166Z,94.93
2016-10-01T09:49:19.158Z,95.41
2016-10-01T09:50:19.467Z,95.56
2016-10-01T09:51:19.149Z,96.27
2016-10-01T09:52:20.148Z,95.79
2016-10-01T09:53:34.057Z,96.94
2016-10-01T09:54:34.053Z,96.56
2016-10-01T09:55:19.132Z,97.04
2016-10-01T09:56:19.145Z,96.75
2016-10-01T09:57:19.124Z,97.23
2016-10-01T09:58:19.118Z,97.23
2016-10-01T09:59:19.111Z,97.23
2016-10-01T10:00:19.109Z,97.23
2016-10-01T10:01:19.456Z,97.61
2016-10-01T10:02:19.098Z,97.9
2016-10-01T10:03:19.094Z,97.99
2016-10-01T10:04:19.094Z,98.09
2016-10-01T10:05:19.082Z,98.28
2016-10-01T10:06:19.083Z,97.99
2016-10-01T10:07:19.077Z,98.66
2016-10-01T10:08:19.071Z,97.9
2016-10-01T10:09:19.066Z,98.18
2016-10-01T10:10:19.065Z,98.28
2016-10-01T10:11:19.062Z,98.47
2016-10-01T10:12:19.056Z,98.57
2016-10-01T10:13:19.050Z,98.95
2016-10-01T10:14:19.043Z,99.04
2016-10-01T10:15:19.043Z,98.75
2016-10-01T10:16:19.036Z,98.66
2016-10-01T10:17:19.029Z,99.04
2016-10-01T10:18:19.031Z,99.24
2016-10-01T10:19:19.022Z,99.24
2016-10-01T10:20:19.018Z,99.62
2016-10-01T10:21:19.016Z,99.99
2016-10-01T10:22:19.006Z,99.99
2016-10-01T10:23:19.006Z,99.67
2016-10-01T10:24:19.000Z,99.99
2016-10-01T10:25:18.995Z,99.99
2016-10-01T10:26:18.996Z,99.99
2016-10-01T10:27:18.984Z,99.86
2016-10-01T10:28:18.985Z,99.99
2016-10-01T10:29:18.975Z,99.99
2016-10-01T10:30:18.971Z,99.99
2016-10-01T10:31:18.971Z,99.99
2016-10-01T10:32:18.963Z,99.99
2016-10-01T10:33:18.963Z,99.99
2016-10-01T10:34:18.956Z,99.99
2016-10-01T10:35:18.952Z,99.99
2016-10-01T10:36:18.952Z,99.99
2016-10-01T10:37:18.945Z,99.99
2016-10-01T10:38:18.943Z,99.99
2016-10-01T10:39:18.938Z,99.99
2016-10-01T10:40:18.936Z,99.99
2016-10-01T10:41:18.930Z,99.99
2016-10-01T10:42:20.272Z,99.99
2016-10-01T10:43:18.921Z,99.99
2016-10-01T10:44:19.450Z,99.99
2016-10-01T10:45:18.908Z,99.99
2016-10-01T10:46:18.900Z,99.99
2016-10-01T10:47:19.176Z,99.99
2016-10-01T10:48:18.898Z,99.99
2016-10-01T10:49:19.084Z,99.99
2016-10-01T10:50:18.886Z,99.99
2016-10-01T10:51:20.220Z,99.99
2016-10-01T10:52:18.876Z,99.99
2016-10-01T10:53:19.545Z,99.99
2016-10-01T10:54:18.976Z,99.99
2016-10-01T10:55:18.881Z,99.99
2016-10-01T10:56:19.318Z,99.99
2016-10-01T10:57:18.860Z,99.99
2016-10-01T10:58:18.859Z,99.99
2016-10-01T10:59:18.853Z,99.99
2016-10-01T11:00:18.849Z,99.99
2016-10-01T11:01:18.843Z,99.99
2016-10-01T11:02:18.841Z,99.99
2016-10-01T11:03:18.836Z,99.99
2016-10-01T11:04:18.836Z,99.99
2016-10-01T11:05:18.828Z,99.99
2016-10-01T11:06:18.829Z,99.99
2016-10-01T11:07:18.820Z,99.99
2016-10-01T11:08:18.821Z,99.99
2016-10-01T11:09:18.814Z,99.99
2016-10-01T11:10:18.810Z,99.99
2016-10-01T11:11:19.711Z,99.99
2016-10-01T11:13:18.815Z,99.99
2016-10-01T11:14:18.797Z,99.99
2016-10-01T11:15:18.787Z,99.99
2016-10-01T11:16:18.791Z,99.99
2016-10-01T11:17:19.794Z,99.99
2016-10-01T11:18:20.287Z,99.99
2016-10-01T11:19:19.484Z,99.99
2016-10-01T11:20:19.374Z,99.99
2016-10-01T11:21:33.681Z,99.99
2016-10-01T11:22:18.964Z,99.99
2016-10-01T11:23:19.006Z,99.99
2016-10-01T11:24:18.752Z,99.99
2016-10-01T11:25:18.748Z,99.99
2016-10-01T11:26:18.742Z,99.99
2016-10-01T11:27:18.741Z,99.99
2016-10-01T11:28:18.732Z,99.99
2016-10-01T11:29:18.727Z,99.99
2016-10-01T11:30:18.725Z,99.99
2016-10-01T11:31:18.721Z,99.99
2016-10-01T11:32:18.733Z,99.99
2016-10-01T11:33:18.709Z,99.99
2016-10-01T11:34:18.709Z,99.99
2016-10-01T11:35:18.709Z,99.99
2016-10-01T11:36:18.702Z,99.99
2016-10-01T11:37:18.693Z,99.99
2016-10-01T11:38:18.690Z,99.99
2016-10-01T11:39:18.688Z,99.99
2016-10-01T11:40:18.683Z,99.99
2016-10-01T11:41:18.676Z,99.99
2016-10-01T11:42:18.688Z,99.99
2016-10-01T11:43:18.664Z,99.99
2016-10-01T11:44:18.660Z,99.99
2016-10-01T11:45:18.658Z,99.99
2016-10-01T11:46:18.651Z,99.99
2016-10-01T11:47:18.655Z,99.99
2016-10-01T11:48:18.643Z,99.99
2016-10-01T11:49:18.648Z,99.99
2016-10-01T11:50:18.632Z,99.99
2016-10-01T11:51:18.631Z,99.99
2016-10-01T11:52:18.627Z,99.99
2016-10-01T11:53:18.621Z,99.99
2016-10-01T11:54:18.620Z,99.99
2016-10-01T11:55:18.614Z,99.99
2016-10-01T11:56:18.606Z,99.99
2016-10-01T11:57:18.599Z,99.99
2016-10-01T11:58:18.599Z,99.99
2016-10-01T11:59:18.593Z,99.99
2016-10-01T12:00:18.595Z,99.99
2016-10-01T12:02:18.581Z,99.99
2016-10-01T12:03:18.574Z,99.99
2016-10-01T12:04:18.571Z,99.99
2016-10-01T12:05:18.565Z,99.99
2016-10-01T12:06:18.733Z,99.99
2016-10-01T12:07:18.557Z,99.99
2016-10-01T12:08:18.551Z,99.99
2016-10-01T12:09:18.546Z,99.99
2016-10-01T12:10:19.855Z,99.99
2016-10-01T12:11:18.532Z,99.99
2016-10-01T12:12:18.533Z,99.99
2016-10-01T12:13:19.216Z,99.99
2016-10-01T12:14:18.516Z,99.99
2016-10-01T12:15:18.513Z,99.99
2016-10-01T12:16:18.508Z,99.99
2016-10-01T12:17:18.508Z,99.99
2016-10-01T12:18:18.499Z,99.99
2016-10-01T12:19:18.497Z,99.99
2016-10-01T12:20:18.493Z,99.99
2016-10-01T12:21:18.486Z,99.99
2016-10-01T12:22:18.483Z,99.99
2016-10-01T12:23:18.780Z,99.99
2016-10-01T12:24:18.468Z,99.99
2016-10-01T12:25:18.468Z,99.99
2016-10-01T12:26:19.164Z,99.99
2016-10-01T12:27:18.903Z,99.99
2016-10-01T12:28:18.452Z,99.99
2016-10-01T12:29:18.747Z,99.99
2016-10-01T12:30:18.793Z,99.99
2016-10-01T12:31:18.437Z,99.99
2016-10-01T12:32:18.434Z,99.99
2016-10-01T12:33:18.426Z,99.99
2016-10-01T12:34:18.426Z,99.99
2016-10-01T12:35:19.569Z,99.99
2016-10-01T12:36:19.362Z,99.99
2016-10-01T12:37:18.411Z,99.99
2016-10-01T12:38:19.051Z,99.99
2016-10-01T12:39:19.004Z,99.99
2016-10-01T12:40:18.396Z,99.99
2016-10-01T12:41:18.395Z,99.99
2016-10-01T12:42:18.385Z,99.99
2016-10-01T12:43:18.375Z,99.99
2016-10-01T12:44:18.377Z,99.99
2016-10-01T12:45:18.368Z,99.99
2016-10-01T12:46:18.368Z,99.99
2016-10-01T12:47:18.681Z,99.99
2016-10-01T12:48:18.365Z,99.99
2016-10-01T12:49:18.353Z,99.99
2016-10-01T12:50:18.362Z,99.99
2016-10-01T12:51:18.340Z,99.99
2016-10-01T12:52:18.344Z,99.99
2016-10-01T12:53:18.333Z,99.99
2016-10-01T12:54:18.329Z,99.99
2016-10-01T12:55:18.324Z,99.99
2016-10-01T12:56:18.321Z,99.99
2016-10-01T12:57:18.317Z,99.99
2016-10-01T12:58:18.309Z,99.99
2016-10-01T12:59:18.305Z,99.99
2016-10-01T13:00:18.299Z,99.99
2016-10-01T13:01:18.296Z,99.99
2016-10-01T13:02:18.295Z,99.99
2016-10-01T13:03:18.287Z,99.99
2016-10-01T13:04:18.286Z,99.99